Time,TemperatureF,DewpointF,PressureIn,WindDirection,WindDirectionDegrees,WindSpeedMPH,WindSpeedGustMPH,Humidity,HourlyPrecipIn,Conditions,Clouds,dailyrainin,SoftwareType,DateUTC
2013-06-09 00:12:00,71.9,64.0,29.84,SE,140,0.0,4.0,75,0.00,,,0.00,weatherlink.com 1.10,2013-06-09 05:12:00,
2013-06-09 00:27:00,71.6,63.0,29.84,SSE,165,0.0,3.0,75,0.00,,,0.00,weatherlink.com 1.10,2013-06-09 05:27:00,
2013-06-09 00:42:00,71.2,63.0,29.83,SSE,163,0.0,2.0,76,0.00,,,0.00,weatherlink.com 1.10,2013-06-09 05:42:00,
2013-06-09 00:57:00,70.9,63.0,29.84,South,188,0.0,3.0,77,0.00,,,0.00,weatherlink.com 1.10,2013-06-09 05:57:00,
2013-06-09 01:12:00,70.2,63.0,29.83,South,188,0.0,3.0,79,0.00,,,0.00,weatherlink.com 1.10,2013-06-09 06:12:00,
2013-06-09 01:27:00,70.4,63.0,29.82,SSE,160,0.0,6.0,78,0.00,,,0.00,weatherlink.com 1.10,2013-06-09 06:27:00,
2013-06-09 01:42:00,70.4,63.0,29.80,SSE,159,5.0,11.0,78,0.00,,,0.00,weatherlink.com 1.10,2013-06-09 06:42:00,
2013-06-09 01:57:00,70.8,63.0,29.77,SE,138,4.0,12.0,77,0.00,,,0.00,weatherlink.com 1.10,2013-06-09 06:57:00,
2013-06-09 02:12:00,70.7,63.0,29.76,South,189,8.0,19.0,77,0.00,,,0.00,weatherlink.com 1.10,2013-06-09 07:12:00,
2013-06-09 02:28:00,71.1,63.0,29.77,SSE,163,4.0,13.0,75,0.00,,,0.00,weatherlink.com 1.10,2013-06-09 07:28:00,
2013-06-09 02:43:00,71.1,62.0,29.79,SSW,207,0.0,14.0,74,0.00,,,0.00,weatherlink.com 1.10,2013-06-09 07:43:00,
2013-06-09 02:58:00,70.6,62.0,29.80,SSW,207,0.0,0.0,75,0.00,,,0.00,weatherlink.com 1.10,2013-06-09 07:58:00,
2013-06-09 03:13:00,70.1,62.0,29.79,SE,133,0.0,1.0,76,0.00,,,0.00,weatherlink.com 1.10,2013-06-09 08:13:00,
2013-06-09 03:28:00,69.9,62.0,29.79,SE,133,0.0,0.0,77,0.00,,,0.00,weatherlink.com 1.10,2013-06-09 08:28:00,
2013-06-09 03:43:00,69.9,62.0,29.78,SSE,149,4.0,5.0,77,0.00,,,0.00,weatherlink.com 1.10,2013-06-09 08:43:00,
2013-06-09 03:58:00,70.5,62.0,29.77,SE,146,0.0,6.0,75,0.00,,,0.00,weatherlink.com 1.10,2013-06-09 08:58:00,
2013-06-09 04:13:00,69.5,62.0,29.77,SE,146,0.0,1.0,78,0.00,,,0.00,weatherlink.com 1.10,2013-06-09 09:13:00,
2013-06-09 04:28:00,68.9,62.0,29.76,SE,130,0.0,4.0,79,0.00,,,0.00,weatherlink.com 1.10,2013-06-09 09:28:00,
2013-06-09 04:43:00,68.8,62.0,29.75,ESE,111,2.0,6.0,79,0.00,,,0.00,weatherlink.com 1.10,2013-06-09 09:43:00,
2013-06-09 04:58:00,69.1,62.0,29.77,ESE,120,0.0,0.0,78,0.00,,,0.00,weatherlink.com 1.10,2013-06-09 09:58:00,
2013-06-09 05:13:00,68.6,62.0,29.77,ESE,120,0.0,0.0,79,0.00,,,0.00,weatherlink.com 1.10,2013-06-09 10:13:00,
2013-06-09 05:28:00,68.0,62.0,29.78,ESE,120,0.0,0.0,80,0.00,,,0.00,weatherlink.com 1.10,2013-06-09 10:28:00,
2013-06-09 05:43:00,67.1,62.0,29.79,ESE,120,0.0,0.0,83,0.00,,,0.00,weatherlink.com 1.10,2013-06-09 10:43:00,
2013-06-09 05:58:00,66.8,62.0,29.80,ESE,120,0.0,0.0,83,0.00,,,0.00,weatherlink.com 1.10,2013-06-09 10:58:00,
2013-06-09 06:13:00,66.3,62.0,29.81,ESE,120,0.0,0.0,85,0.00,,,0.00,weatherlink.com 1.10,2013-06-09 11:13:00,
2013-06-09 06:28:00,65.8,62.0,29.80,ESE,120,0.0,0.0,87,0.00,,,0.00,weatherlink.com 1.10,2013-06-09 11:28:00,
2013-06-09 06:43:00,65.2,62.0,29.80,ESE,120,0.0,0.0,88,0.00,,,0.00,weatherlink.com 1.10,2013-06-09 11:43:00,
2013-06-09 06:58:00,65.9,62.0,29.81,ESE,120,0.0,0.0,88,0.00,,,0.00,weatherlink.com 1.10,2013-06-09 11:58:00,
2013-06-09 07:13:00,68.5,63.0,29.81,West,264,0.0,6.0,83,0.00,,,0.00,weatherlink.com 1.10,2013-06-09 12:13:00,
2013-06-09 07:28:00,70.4,64.0,29.81,WNW,296,2.0,5.0,79,0.00,,,0.00,weatherlink.com 1.10,2013-06-09 12:28:00,
2013-06-09 07:43:00,70.9,63.0,29.81,WNW,301,0.0,7.0,77,0.00,,,0.00,weatherlink.com 1.10,2013-06-09 12:43:00,
2013-06-09 07:58:00,70.6,64.0,29.82,WNW,302,1.0,3.0,79,0.00,,,0.00,weatherlink.com 1.10,2013-06-09 12:58:00,
2013-06-09 08:13:00,72.0,64.0,29.82,NW,308,0.0,14.0,77,0.00,,,0.00,weatherlink.com 1.10,2013-06-09 13:13:00,
2013-06-09 08:28:00,72.5,65.0,29.82,NW,317,0.0,8.0,76,0.00,,,0.00,weatherlink.com 1.10,2013-06-09 13:28:00,
2013-06-09 08:43:00,73.5,65.0,29.83,North,5,3.0,8.0,75,0.00,,,0.00,weatherlink.com 1.10,2013-06-09 13:43:00,
2013-06-09 08:58:00,73.8,65.0,29.84,NW,316,0.0,9.0,73,0.00,,,0.00,weatherlink.com 1.10,2013-06-09 13:58:00,
2013-06-09 09:13:00,74.5,65.0,29.84,NW,314,0.0,7.0,72,0.00,,,0.00,weatherlink.com 1.10,2013-06-09 14:13:00,
2013-06-09 09:28:00,75.3,65.0,29.84,NW,319,2.0,8.0,70,0.00,,,0.00,weatherlink.com 1.10,2013-06-09 14:28:00,
2013-06-09 09:43:00,76.4,66.0,29.85,WNW,296,0.0,11.0,69,0.00,,,0.00,weatherlink.com 1.10,2013-06-09 14:43:00,
2013-06-09 09:58:00,77.9,66.0,29.85,NW,313,0.0,5.0,67,0.00,,,0.00,weatherlink.com 1.10,2013-06-09 14:58:00,
2013-06-09 10:13:00,78.4,66.0,29.85,NW,324,2.0,10.0,65,0.00,,,0.00,weatherlink.com 1.10,2013-06-09 15:13:00,
2013-06-09 10:28:00,78.4,66.0,29.85,NW,314,0.0,12.0,65,0.00,,,0.00,weatherlink.com 1.10,2013-06-09 15:28:00,
2013-06-09 10:43:00,79.3,67.0,29.85,NNW,348,4.0,6.0,65,0.00,,,0.00,weatherlink.com 1.10,2013-06-09 15:43:00,
2013-06-09 10:58:00,80.2,66.0,29.85,NW,319,1.0,6.0,62,0.00,,,0.00,weatherlink.com 1.10,2013-06-09 15:58:00,
2013-06-09 11:13:00,80.4,66.0,29.85,NW,320,0.0,8.0,62,0.00,,,0.00,weatherlink.com 1.10,2013-06-09 16:13:00,
2013-06-09 11:28:00,80.7,66.0,29.85,WNW,296,0.0,7.0,61,0.00,,,0.00,weatherlink.com 1.10,2013-06-09 16:28:00,
2013-06-09 11:43:00,81.4,67.0,29.85,NW,311,0.0,9.0,62,0.00,,,0.00,weatherlink.com 1.10,2013-06-09 16:43:00,
2013-06-09 11:59:00,81.5,64.0,29.86,NNW,348,4.0,13.0,56,0.00,,,0.00,weatherlink.com 1.10,2013-06-09 16:59:00,
2013-06-09 12:14:00,82.1,64.0,29.86,North,355,0.0,10.0,55,0.00,,,0.00,weatherlink.com 1.10,2013-06-09 17:14:00,
2013-06-09 12:29:00,81.8,63.0,29.86,NW,317,0.0,8.0,53,0.00,,,0.00,weatherlink.com 1.10,2013-06-09 17:29:00,
2013-06-09 12:44:00,81.9,63.0,29.86,NW,312,0.0,12.0,53,0.00,,,0.00,weatherlink.com 1.10,2013-06-09 17:44:00,
2013-06-09 12:59:00,82.5,64.0,29.85,North,355,8.0,12.0,53,0.00,,,0.00,weatherlink.com 1.10,2013-06-09 17:59:00,
2013-06-09 13:14:00,83.1,64.0,29.86,NW,306,0.0,8.0,52,0.00,,,0.00,weatherlink.com 1.10,2013-06-09 18:14:00,
2013-06-09 13:29:00,83.0,61.0,29.85,North,355,0.0,11.0,48,0.00,,,0.00,weatherlink.com 1.10,2013-06-09 18:29:00,
2013-06-09 13:44:00,82.3,62.0,29.85,NNE,28,4.0,8.0,50,0.00,,,0.00,weatherlink.com 1.10,2013-06-09 18:44:00,
2013-06-09 13:59:00,83.7,63.0,29.84,North,351,0.0,3.0,50,0.00,,,0.00,weatherlink.com 1.10,2013-06-09 18:59:00,
2013-06-09 14:14:00,84.5,60.0,29.84,NW,317,0.0,4.0,44,0.00,,,0.00,weatherlink.com 1.10,2013-06-09 19:14:00,
2013-06-09 14:29:00,85.1,61.0,29.84,NW,313,0.0,5.0,45,0.00,,,0.00,weatherlink.com 1.10,2013-06-09 19:29:00,
2013-06-09 14:44:00,84.3,61.0,29.84,North,355,0.0,7.0,45,0.00,,,0.00,weatherlink.com 1.10,2013-06-09 19:44:00,
2013-06-09 14:59:00,85.3,62.0,29.84,North,355,0.0,7.0,45,0.00,,,0.00,weatherlink.com 1.10,2013-06-09 19:59:00,
2013-06-09 15:14:00,83.9,61.0,29.83,North,5,0.0,7.0,46,0.00,,,0.00,weatherlink.com 1.10,2013-06-09 20:14:00,
2013-06-09 15:29:00,85.4,61.0,29.82,WNW,302,2.0,5.0,44,0.00,,,0.00,weatherlink.com 1.10,2013-06-09 20:29:00,
2013-06-09 15:44:00,86.1,61.0,29.82,NW,309,0.0,9.0,43,0.00,,,0.00,weatherlink.com 1.10,2013-06-09 20:44:00,
2013-06-09 15:59:00,85.3,62.0,29.82,NW,315,0.0,10.0,45,0.00,,,0.00,weatherlink.com 1.10,2013-06-09 20:59:00,
2013-06-09 16:14:00,86.6,63.0,29.81,North,355,0.0,9.0,45,0.00,,,0.00,weatherlink.com 1.10,2013-06-09 21:14:00,
2013-06-09 16:29:00,86.1,61.0,29.81,North,355,0.0,8.0,43,0.00,,,0.00,weatherlink.com 1.10,2013-06-09 21:29:00,
2013-06-09 16:44:00,86.5,61.0,29.80,NW,311,0.0,6.0,42,0.00,,,0.00,weatherlink.com 1.10,2013-06-09 21:44:00,
2013-06-09 16:59:00,86.7,60.0,29.80,WSW,252,0.0,5.0,41,0.00,,,0.00,weatherlink.com 1.10,2013-06-09 21:59:00,
2013-06-09 17:14:00,87.3,60.0,29.80,SW,219,0.0,0.0,40,0.00,,,0.00,weatherlink.com 1.10,2013-06-09 22:14:00,
2013-06-09 17:29:00,87.1,57.0,29.80,West,271,0.0,3.0,36,0.00,,,0.00,weatherlink.com 1.10,2013-06-09 22:29:00,
2013-06-09 17:44:00,87.6,59.0,29.79,West,268,0.0,0.0,38,0.00,,,0.00,weatherlink.com 1.10,2013-06-09 22:44:00,
2013-06-09 17:59:00,87.1,61.0,29.79,SSW,200,0.0,7.0,41,0.00,,,0.00,weatherlink.com 1.10,2013-06-09 22:59:00,
2013-06-09 18:14:00,86.3,61.0,29.79,SSW,198,0.0,5.0,42,0.00,,,0.00,weatherlink.com 1.10,2013-06-09 23:14:00,
2013-06-09 18:29:00,85.9,61.0,29.79,South,175,0.0,5.0,43,0.00,,,0.00,weatherlink.com 1.10,2013-06-09 23:29:00,
2013-06-09 18:44:00,85.7,59.0,29.79,SSW,209,0.0,3.0,40,0.00,,,0.00,weatherlink.com 1.10,2013-06-09 23:44:00,
2013-06-09 18:59:00,85.1,61.0,29.79,SSW,213,0.0,3.0,44,0.00,,,0.00,weatherlink.com 1.10,2013-06-09 23:59:00,
2013-06-09 19:14:00,84.4,61.0,29.79,SW,214,0.0,0.0,45,0.00,,,0.00,weatherlink.com 1.10,2013-06-10 00:14:00,
2013-06-09 19:29:00,83.7,60.0,29.79,SW,215,0.0,0.0,45,0.00,,,0.00,weatherlink.com 1.10,2013-06-10 00:29:00,
2013-06-09 19:44:00,83.2,61.0,29.80,SW,215,0.0,0.0,47,0.00,,,0.00,weatherlink.com 1.10,2013-06-10 00:44:00,
2013-06-09 19:59:00,81.7,62.0,29.79,SW,215,0.0,3.0,52,0.00,,,0.00,weatherlink.com 1.10,2013-06-10 00:59:00,
2013-06-09 20:14:00,80.6,62.0,29.79,SW,215,0.0,0.0,54,0.00,,,0.00,weatherlink.com 1.10,2013-06-10 01:14:00,
2013-06-09 20:29:00,79.4,62.0,29.79,SW,215,0.0,0.0,56,0.00,,,0.00,weatherlink.com 1.10,2013-06-10 01:29:00,
2013-06-09 20:44:00,78.5,62.0,29.79,SW,215,0.0,0.0,57,0.00,,,0.00,weatherlink.com 1.10,2013-06-10 01:44:00,
2013-06-09 20:59:00,77.8,62.0,29.79,SW,215,0.0,0.0,58,0.00,,,0.00,weatherlink.com 1.10,2013-06-10 01:59:00,
2013-06-09 21:14:00,77.1,61.0,29.79,SW,215,0.0,0.0,58,0.00,,,0.00,weatherlink.com 1.10,2013-06-10 02:14:00,
2013-06-09 21:29:00,76.5,61.0,29.80,SW,215,0.0,2.0,59,0.00,,,0.00,weatherlink.com 1.10,2013-06-10 02:29:00,
2013-06-09 21:44:00,75.6,62.0,29.79,SW,215,0.0,0.0,62,0.00,,,0.00,weatherlink.com 1.10,2013-06-10 02:44:00,
2013-06-09 21:59:00,75.5,61.0,29.80,SW,215,0.0,3.0,61,0.00,,,0.00,weatherlink.com 1.10,2013-06-10 02:59:00,
2013-06-09 22:14:00,74.9,61.0,29.81,SSE,165,0.0,4.0,63,0.00,,,0.00,weatherlink.com 1.10,2013-06-10 03:14:00,
2013-06-09 22:29:00,74.6,61.0,29.81,South,179,0.0,3.0,62,0.00,,,0.00,weatherlink.com 1.10,2013-06-10 03:29:00,
2013-06-09 22:44:00,74.3,61.0,29.82,South,179,0.0,3.0,63,0.00,,,0.00,weatherlink.com 1.10,2013-06-10 03:44:00,
2013-06-09 22:59:00,74.6,61.0,29.81,South,173,0.0,5.0,62,0.00,,,0.00,weatherlink.com 1.10,2013-06-10 03:59:00,
2013-06-09 23:14:00,73.9,61.0,29.82,South,173,0.0,2.0,65,0.00,,,0.00,weatherlink.com 1.10,2013-06-10 04:14:00,
2013-06-09 23:29:00,73.4,61.0,29.81,South,176,0.0,3.0,66,0.00,,,0.00,weatherlink.com 1.10,2013-06-10 04:29:00,
2013-06-09 23:44:00,73.3,61.0,29.82,South,176,0.0,3.0,66,0.00,,,0.00,weatherlink.com 1.10,2013-06-10 04:44:00,
2013-06-09 23:59:00,73.2,61.0,29.81,South,176,0.0,4.0,66,0.00,,,0.00,weatherlink.com 1.10,2013-06-10 04:59:00,